Oceana Nas /Apollo Soucek Field/ Station
KNTU : now visible

Airfield :











YOU CAN JOIN US ON...

 
LOGIN :

Register | Disclaimer

   EN    FR    IT 

 









Legend :    VFR   Marginal VFR   IFR   Intensive IFR   Very Intensive IFR
Visi :
Ceiling :
>= 8 km
>= 3000ft
5 to 8 km
1000 to 3000 ft
1500m to 5 km
500 to 1000 ft
800 to 1500m
200 to 500 ft
< 800m
< 200 ft
Symbols :   Thunderstorms  Fog  Heavy snow  Heavy precipitations  Wind > 20 kt






- Airport Elevation : 23 ft


KNTU - Oceana Nas /Apollo Soucek Field/ Station

CURRENT METAR :
  • 270156Z 00000KT 10SM OVC012 23/21 A2997 RMK AO2 SLP149 T02280206

EXPIRED METARs :
  • 270056Z 00000KT 10SM OVC010 23/21 A2996 RMK AO2 SLP149 T02330206
  • 262356Z 00000KT 10SM BKN010 OVC090 23/21 A2996 RMK AO2 SLP147 CIG 007V012 60033 T02330211 10261 20233 51007

TAF TAF KNTU
Valid from the 26 at 23:00 until the 27 at 23:00 UTC


2623/2723 VRB06KT 8000 BR VCSH BKN015 BKN030 QNH2990INS
TEMPO 2700/2706 4800 SHRA BR BKN005 OVC015
FM271000 VRB06KT 9999 BKN015 OVC030 QNH2992INS
TEMPO 2710/2714 8000 BR BKN004 OVC018
FM271500 VRB06KT 9999 BKN015 OVC020 QNH2993INS
TEMPO 2720/2722 6000 BR BKN006 OVC012 T19/2709Z T24/2720Z FN00223
KZDC FIR / North America



MET'MAP, your aeronautical weather chart ! - Copyright ORBIFLY December 2007 - Disclaimer

ORBIFLY MET'MAP TEAM :

Programming & Development : Alexandra Zaïnal
Concept & original design : Baudouin d'Aumeries
Assistance for programming : Marc-Olivier Méhu
Technical & hardware support : Manuel Goepfert

Contact : metmap@orbifly.com




SOURCES & CREDITS :

   NOAA       Earth
Advisory